createdAt,value
2019-02-20T00:07:39.768Z,93.60
2019-02-20T00:17:42.193Z,93.60
2019-02-20T00:27:43.664Z,93.40
2019-02-20T00:37:45.204Z,92.70
2019-02-20T00:48:00.565Z,92.60
2019-02-20T00:58:02.988Z,93.10
2019-02-20T01:08:04.736Z,93.40
2019-02-20T01:18:06.924Z,93.60
2019-02-20T01:28:08.396Z,94.00
2019-02-20T01:38:09.924Z,93.70
2019-02-20T01:48:11.635Z,93.60
2019-02-20T01:58:14.057Z,93.60
2019-02-20T02:08:15.572Z,93.40
2019-02-20T02:18:17.095Z,93.00
2019-02-20T02:28:18.559Z,93.00
2019-02-20T02:38:19.873Z,92.90
2019-02-20T02:48:21.684Z,93.00
2019-02-20T02:58:24.074Z,92.50
2019-02-20T03:08:25.697Z,92.00
2019-02-20T03:18:28.189Z,90.30
2019-02-20T03:28:29.756Z,90.50
2019-02-20T03:38:31.184Z,90.70
2019-02-20T03:48:32.709Z,91.10
2019-02-20T03:58:36.078Z,91.30
2019-02-20T04:08:37.465Z,91.20
2019-02-20T04:18:38.930Z,91.20
2019-02-20T04:28:40.324Z,91.20
2019-02-20T04:38:41.737Z,91.20
2019-02-20T04:48:43.277Z,91.00
2019-02-20T04:58:47.709Z,91.00
2019-02-20T05:08:49.275Z,91.40
2019-02-20T05:18:50.741Z,90.80
2019-02-20T05:28:52.208Z,90.70
2019-02-20T05:38:53.588Z,90.90
2019-02-20T05:48:55.157Z,90.80
2019-02-20T05:58:57.573Z,90.70
2019-02-20T06:08:58.842Z,90.80
2019-02-20T06:19:00.226Z,91.00
2019-02-20T06:29:01.683Z,91.00
2019-02-20T06:39:04.520Z,88.30
2019-02-20T06:49:07.776Z,84.30
2019-02-20T06:59:10.167Z,86.20
2019-02-20T07:09:33.647Z,87.40
2019-02-20T07:19:47.430Z,88.10
2019-02-20T07:29:57.392Z,87.60
2019-02-20T07:39:58.717Z,86.40
2019-02-20T07:50:00.370Z,86.60
2019-02-20T08:00:06.781Z,86.30
2019-02-20T08:10:09.890Z,85.70
2019-02-20T08:20:11.444Z,86.20
2019-02-20T08:30:13.525Z,85.70
2019-02-20T08:40:15.343Z,86.40
2019-02-20T08:50:17.005Z,86.10
2019-02-20T09:00:21.049Z,84.80
2019-02-20T09:10:22.518Z,83.60
2019-02-20T09:20:23.996Z,83.90
2019-02-20T09:30:28.481Z,83.90
2019-02-20T09:40:28.744Z,81.80
2019-02-20T09:50:30.211Z,81.10
2019-02-20T10:00:34.293Z,82.10
2019-02-20T10:10:35.665Z,81.80
2019-02-20T10:20:37.191Z,78.00
2019-02-20T10:30:38.651Z,75.80
2019-02-20T10:40:40.176Z,71.80
2019-02-20T10:50:41.848Z,69.10
2019-02-20T11:00:44.287Z,70.00
2019-02-20T11:10:46.043Z,68.80
2019-02-20T11:20:48.540Z,69.00
2019-02-20T11:30:50.098Z,65.10
2019-02-20T11:40:51.513Z,68.90
2019-02-20T11:50:53.202Z,68.90
2019-02-20T12:00:56.305Z,64.30
2019-02-20T12:10:58.061Z,61.20
2019-02-20T12:20:59.540Z,57.40
2019-02-20T12:31:01.266Z,56.10
2019-02-20T12:41:02.950Z,59.80
2019-02-20T12:51:05.645Z,60.90
2019-02-20T13:01:08.069Z,60.60
2019-02-20T13:11:09.472Z,62.10
2019-02-20T13:21:11.123Z,65.00
2019-02-20T13:31:13.719Z,65.50
2019-02-20T13:41:15.122Z,65.90
2019-02-20T13:51:17.752Z,65.70
2019-02-20T14:01:20.384Z,66.20
2019-02-20T14:11:21.866Z,64.40
2019-02-20T14:21:23.312Z,64.30
2019-02-20T14:31:25.076Z,63.00
2019-02-20T14:41:26.477Z,64.80
2019-02-20T14:51:28.126Z,65.80
2019-02-20T15:01:30.692Z,67.30
2019-02-20T15:11:32.194Z,67.80
2019-02-20T15:21:33.946Z,65.20
2019-02-20T15:31:35.339Z,67.60
2019-02-20T15:41:37.069Z,68.10
2019-02-20T15:51:38.625Z,68.50
2019-02-20T16:01:41.167Z,70.60
2019-02-20T16:11:42.636Z,71.00
2019-02-20T16:21:44.088Z,71.80
2019-02-20T16:31:45.478Z,72.20
2019-02-20T16:41:46.902Z,71.90
2019-02-20T16:51:48.461Z,72.70
2019-02-20T17:01:50.926Z,72.30
2019-02-20T17:11:53.510Z,72.10
2019-02-20T17:21:55.251Z,73.50
2019-02-20T17:31:57.855Z,74.30
2019-02-20T17:41:59.268Z,74.90
2019-02-20T17:52:01.165Z,75.40
2019-02-20T18:02:03.727Z,76.20
2019-02-20T18:12:05.542Z,76.90
2019-02-20T18:22:07.347Z,75.80
2019-02-20T18:32:08.856Z,75.20
2019-02-20T18:42:10.301Z,74.80
2019-02-20T18:52:11.897Z,73.40
2019-02-20T19:02:14.344Z,73.70
2019-02-20T19:12:42.730Z,72.70
2019-02-20T19:22:54.195Z,73.40
2019-02-20T19:33:17.458Z,73.50
2019-02-20T19:43:44.285Z,74.80
2019-02-20T19:53:49.615Z,75.60
2019-02-20T20:03:55.891Z,75.40
2019-02-20T20:14:17.874Z,74.30
2019-02-20T20:24:47.092Z,74.40
2019-02-20T20:34:55.163Z,73.30
2019-02-20T20:45:20.021Z,72.80
2019-02-20T20:55:53.081Z,72.80
2019-02-20T21:06:14.404Z,72.00
2019-02-20T21:16:31.752Z,72.10
2019-02-20T21:26:43.680Z,72.60
2019-02-20T21:37:08.908Z,72.60
2019-02-20T21:47:26.227Z,71.30
2019-02-20T21:57:39.254Z,71.40
2019-02-20T22:08:08.310Z,70.80
2019-02-20T22:18:13.517Z,70.00
2019-02-20T22:28:30.648Z,71.80
2019-02-20T22:38:51.225Z,73.10
2019-02-20T22:49:05.111Z,70.50
2019-02-20T22:59:31.927Z,70.60
2019-02-20T23:09:47.253Z,70.50
2019-02-20T23:19:49.853Z,69.10
2019-02-20T23:29:51.807Z,69.70
2019-02-20T23:39:53.184Z,70.30
2019-02-20T23:49:56.448Z,69.50
2019-02-20T23:59:57.841Z,70.10
